createdAt,value
2023-03-05T00:00:37.282Z,78.16
2023-03-05T00:01:37.271Z,78.58
2023-03-05T00:02:37.306Z,78.16
2023-03-05T00:03:37.326Z,78.16
2023-03-05T00:04:37.263Z,78.16
2023-03-05T00:05:37.231Z,78.47
2023-03-05T00:06:37.245Z,78.16
2023-03-05T00:07:37.238Z,78.37
2023-03-05T00:08:37.216Z,78.55
2023-03-05T00:09:37.203Z,79.38
2023-03-05T00:10:37.196Z,78.34
2023-03-05T00:11:37.174Z,78.30
2023-03-05T00:12:37.185Z,78.09
2023-03-05T00:13:37.178Z,78.30
2023-03-05T00:14:37.167Z,78.09
2023-03-05T00:15:37.180Z,77.82
2023-03-05T00:16:37.145Z,77.92
2023-03-05T00:17:37.113Z,78.13
2023-03-05T00:18:37.108Z,78.55
2023-03-05T00:19:37.092Z,79.13
2023-03-05T00:20:37.083Z,78.09
2023-03-05T00:21:37.096Z,77.78
2023-03-05T00:22:37.068Z,77.95
2023-03-05T00:23:37.072Z,77.89
2023-03-05T00:24:37.046Z,77.26
2023-03-05T00:25:37.044Z,77.06
2023-03-05T00:26:37.029Z,77.16
2023-03-05T00:27:37.059Z,75.95
2023-03-05T00:28:37.007Z,76.12
2023-03-05T00:29:37.000Z,75.81
2023-03-05T00:30:37.018Z,76.54
2023-03-05T00:31:37.060Z,76.37
2023-03-05T00:32:36.981Z,75.64
2023-03-05T00:33:36.968Z,76.57
2023-03-05T00:34:36.958Z,76.23
2023-03-05T00:35:36.951Z,75.71
2023-03-05T00:36:36.934Z,75.92
2023-03-05T00:37:36.944Z,75.81
2023-03-05T00:38:36.917Z,75.81
2023-03-05T00:39:36.926Z,76.02
2023-03-05T00:40:36.972Z,76.02
2023-03-05T00:41:36.904Z,76.29
2023-03-05T00:42:36.885Z,75.67
2023-03-05T00:43:36.868Z,75.78
2023-03-05T00:44:36.857Z,75.88
2023-03-05T00:45:36.868Z,76.09
2023-03-05T00:46:36.865Z,75.98
2023-03-05T00:47:36.837Z,75.78
2023-03-05T00:48:36.821Z,75.26
2023-03-05T00:49:36.829Z,75.26
2023-03-05T00:50:36.790Z,75.26
2023-03-05T00:51:36.806Z,75.67
2023-03-05T00:52:36.758Z,75.32
2023-03-05T00:53:36.801Z,74.60
2023-03-05T00:54:36.773Z,74.71
2023-03-05T00:55:36.771Z,74.19
2023-03-05T00:56:36.736Z,74.81
2023-03-05T00:57:36.719Z,74.08
2023-03-05T00:58:36.730Z,74.60
2023-03-05T00:59:36.739Z,75.63
2023-03-05T01:00:36.696Z,74.81
2023-03-05T01:01:36.694Z,75.53
2023-03-05T01:02:36.671Z,75.74
2023-03-05T01:03:37.657Z,75.74
2023-03-05T01:04:36.659Z,75.74
2023-03-05T01:05:36.709Z,76.57
2023-03-05T01:06:36.639Z,76.53
2023-03-05T01:07:36.609Z,75.43
2023-03-05T01:08:36.585Z,75.43
2023-03-05T01:09:36.605Z,76.15
2023-03-05T01:10:36.577Z,76.67
2023-03-05T01:11:36.576Z,76.57
2023-03-05T01:12:36.573Z,76.46
2023-03-05T01:13:36.538Z,75.74
2023-03-05T01:14:36.548Z,75.12
2023-03-05T01:15:36.516Z,74.95
2023-03-05T01:16:37.553Z,74.01
2023-03-05T01:17:36.509Z,74.43
2023-03-05T01:18:36.491Z,74.22
2023-03-05T01:19:36.481Z,74.63
2023-03-05T01:21:08.368Z,73.91
2023-03-05T01:21:36.476Z,74.01
2023-03-05T01:22:36.443Z,74.57
2023-03-05T01:23:36.442Z,74.57
2023-03-05T01:24:36.423Z,74.74
2023-03-05T01:25:36.421Z,73.91
2023-03-05T01:26:36.414Z,74.84
2023-03-05T01:27:36.436Z,75.78
2023-03-05T01:28:36.388Z,76.40
2023-03-05T01:29:36.381Z,76.29
2023-03-05T01:30:36.371Z,76.57
2023-03-05T01:31:36.408Z,76.40
2023-03-05T01:32:36.457Z,75.57
2023-03-05T01:33:36.344Z,75.78
2023-03-05T01:34:36.344Z,76.61
2023-03-05T01:35:36.342Z,76.29
2023-03-05T01:36:36.326Z,76.09
2023-03-05T01:37:36.291Z,76.29
2023-03-05T01:38:36.279Z,76.09
2023-03-05T01:39:36.286Z,76.19
2023-03-05T01:40:36.258Z,75.92
2023-03-05T01:41:36.288Z,76.61
2023-03-05T01:42:36.256Z,76.19
2023-03-05T01:43:36.239Z,76.29
2023-03-05T01:44:36.239Z,77.75
2023-03-05T01:45:36.263Z,77.85
2023-03-05T01:46:36.206Z,77.95
2023-03-05T01:47:36.208Z,77.95
2023-03-05T01:48:36.194Z,78.16
2023-03-05T01:49:36.184Z,76.92
2023-03-05T01:50:36.188Z,77.26
2023-03-05T01:51:36.163Z,77.85
2023-03-05T01:52:36.148Z,78.06
2023-03-05T01:53:36.138Z,77.54
2023-03-05T01:54:36.151Z,77.89
2023-03-05T01:55:36.118Z,78.06
2023-03-05T01:56:36.114Z,78.16
2023-03-05T01:57:36.109Z,78.06
2023-03-05T01:58:36.087Z,76.40
2023-03-05T01:59:36.099Z,77.54
2023-03-05T02:00:36.069Z,77.23
2023-03-05T02:01:36.060Z,77.33
2023-03-05T02:02:36.050Z,77.12
2023-03-05T02:03:36.082Z,76.61
2023-03-05T02:04:36.041Z,75.78
2023-03-05T02:05:36.019Z,75.78
2023-03-05T02:06:35.997Z,75.78
2023-03-05T02:07:36.001Z,75.46
2023-03-05T02:08:35.981Z,75.50
2023-03-05T02:09:36.000Z,76.40
2023-03-05T02:10:35.969Z,76.09
2023-03-05T02:11:35.955Z,76.33
2023-03-05T02:12:35.942Z,74.26
2023-03-05T02:13:35.963Z,73.74
2023-03-05T02:14:35.944Z,73.32
2023-03-05T02:15:35.924Z,73.32
2023-03-05T02:16:36.047Z,72.60
2023-03-05T02:17:35.898Z,73.22
2023-03-05T02:18:35.915Z,73.84
2023-03-05T02:19:35.904Z,73.74
2023-03-05T02:20:35.876Z,72.60
2023-03-05T02:21:35.862Z,72.91
2023-03-05T02:22:35.879Z,73.08
2023-03-05T02:23:35.854Z,72.88
2023-03-05T02:24:35.834Z,73.53
2023-03-05T02:25:35.864Z,73.08
2023-03-05T02:26:35.813Z,72.80
2023-03-05T02:27:35.813Z,73.08
2023-03-05T02:28:35.803Z,72.56
2023-03-05T02:29:35.796Z,72.91
2023-03-05T02:30:35.797Z,72.67
2023-03-05T02:31:35.789Z,72.56
2023-03-05T02:32:35.836Z,73.49
2023-03-05T02:33:35.748Z,72.77
2023-03-05T02:34:35.750Z,72.88
2023-03-05T02:35:35.754Z,73.39
2023-03-05T02:36:35.719Z,73.28
2023-03-05T02:37:35.748Z,73.28
2023-03-05T02:38:35.708Z,73.60
2023-03-05T02:39:35.692Z,72.46
2023-03-05T02:40:35.686Z,73.22
2023-03-05T02:41:35.663Z,73.70
2023-03-05T02:42:36.690Z,72.88
2023-03-05T02:43:35.686Z,73.74
2023-03-05T02:44:35.661Z,73.49
2023-03-05T02:45:35.637Z,73.80
2023-03-05T02:46:35.626Z,73.60
2023-03-05T02:47:35.629Z,72.80
2023-03-05T02:48:35.598Z,72.91
2023-03-05T02:49:35.583Z,72.70
2023-03-05T02:50:35.612Z,72.91
2023-03-05T02:51:35.575Z,72.94
2023-03-05T02:52:35.573Z,73.57
2023-03-05T02:53:35.581Z,72.42
2023-03-05T02:54:35.568Z,72.84
2023-03-05T02:55:36.532Z,71.80
2023-03-05T02:56:35.519Z,71.70
2023-03-05T02:57:35.523Z,71.49
2023-03-05T02:58:35.510Z,71.45
2023-03-05T02:59:35.556Z,71.35
2023-03-05T03:00:35.484Z,71.14
2023-03-05T03:01:35.541Z,71.56
2023-03-05T03:02:35.480Z,71.25
2023-03-05T03:03:35.524Z,70.52
2023-03-05T03:04:35.446Z,70.04
2023-03-05T03:05:35.475Z,71.59
2023-03-05T03:06:35.445Z,71.56
2023-03-05T03:07:35.454Z,71.45
2023-03-05T03:08:35.425Z,71.87
2023-03-05T03:09:35.412Z,72.39
2023-03-05T03:10:35.389Z,71.45
2023-03-05T03:11:35.365Z,71.45
2023-03-05T03:12:35.398Z,70.31
2023-03-05T03:13:35.366Z,69.59
2023-03-05T03:14:35.366Z,69.38
2023-03-05T03:15:35.365Z,69.69
2023-03-05T03:16:35.450Z,70.21
2023-03-05T03:17:35.329Z,70.83
2023-03-05T03:18:35.309Z,71.04
2023-03-05T03:19:35.295Z,71.66
2023-03-05T03:20:35.343Z,71.56
2023-03-05T03:21:35.303Z,71.25
2023-03-05T03:22:35.282Z,71.35
2023-03-05T03:23:35.264Z,69.59
2023-03-05T03:24:35.256Z,69.48
2023-03-05T03:25:35.271Z,69.24
2023-03-05T03:26:35.231Z,69.04
2023-03-05T03:27:35.222Z,68.96
2023-03-05T03:28:35.214Z,69.38
2023-03-05T03:29:35.212Z,70.52
2023-03-05T03:30:35.261Z,70.31
2023-03-05T03:31:35.193Z,70.62
2023-03-05T03:32:35.264Z,70.10
2023-03-05T03:33:35.182Z,70.10
2023-03-05T03:34:35.152Z,69.07
2023-03-05T03:35:35.186Z,69.48
2023-03-05T03:36:35.124Z,70.31
2023-03-05T03:37:35.132Z,71.25
2023-03-05T03:38:35.106Z,71.77
2023-03-05T03:39:35.102Z,71.84
2023-03-05T03:40:35.113Z,71.73
2023-03-05T03:41:35.080Z,71.25
2023-03-05T03:42:35.085Z,71.97
2023-03-05T03:43:35.092Z,70.42
2023-03-05T03:44:35.052Z,71.45
2023-03-05T03:45:35.079Z,70.62
2023-03-05T03:46:36.036Z,70.31
2023-03-05T03:47:35.024Z,70.10
2023-03-05T03:48:35.009Z,71.04
2023-03-05T03:49:35.009Z,71.25
2023-03-05T03:50:35.005Z,71.14
2023-03-05T03:51:35.008Z,71.56
2023-03-05T03:52:34.971Z,71.77
2023-03-05T03:53:34.974Z,71.73
2023-03-05T03:54:34.984Z,70.90
2023-03-05T03:55:34.943Z,71.22
2023-03-05T03:56:34.945Z,71.73
2023-03-05T03:57:34.935Z,69.04
2023-03-05T03:58:34.951Z,68.86
2023-03-05T03:59:34.898Z,70.31
2023-03-05T04:00:34.899Z,69.31
2023-03-05T04:01:34.882Z,69.38
2023-03-05T04:02:34.942Z,70.66
2023-03-05T04:03:34.870Z,70.76
2023-03-05T04:04:34.886Z,70.25
2023-03-05T04:05:34.841Z,70.35
2023-03-05T04:06:34.863Z,70.35
2023-03-05T04:07:34.879Z,70.59
2023-03-05T04:08:34.839Z,69.65
2023-03-05T04:09:34.811Z,69.24
2023-03-05T04:10:34.794Z,70.28
2023-03-05T04:11:34.791Z,70.45
2023-03-05T04:12:34.782Z,70.69
2023-03-05T04:13:34.768Z,70.79
2023-03-05T04:14:34.769Z,70.87
2023-03-05T04:15:34.745Z,70.90
2023-03-05T04:16:34.766Z,70.35
2023-03-05T04:17:34.731Z,70.35
2023-03-05T04:18:34.731Z,70.66
2023-03-05T04:19:34.711Z,70.76
2023-03-05T04:20:34.693Z,70.35
2023-03-05T04:21:34.701Z,70.45
2023-03-05T04:22:34.681Z,70.14
2023-03-05T04:23:34.665Z,69.73
2023-03-05T04:24:34.674Z,70.56
2023-03-05T04:25:34.666Z,70.38
2023-03-05T04:26:34.639Z,70.48
2023-03-05T04:27:34.619Z,70.38
2023-03-05T04:28:34.624Z,70.28
2023-03-05T04:29:34.635Z,70.28
2023-03-05T04:30:34.616Z,71.00
2023-03-05T04:31:34.669Z,70.48
2023-03-05T04:32:34.684Z,70.69
2023-03-05T04:33:34.571Z,70.25
2023-03-05T04:34:34.557Z,70.59
2023-03-05T04:35:34.607Z,70.17
2023-03-05T04:36:34.555Z,69.21
2023-03-05T04:37:34.529Z,69.10
2023-03-05T04:38:34.517Z,70.14
2023-03-05T04:39:34.525Z,69.52
2023-03-05T04:40:34.508Z,70.45
2023-03-05T04:41:34.511Z,69.34
2023-03-05T04:42:34.489Z,69.96
2023-03-05T04:43:34.481Z,69.42
2023-03-05T04:44:34.468Z,70.56
2023-03-05T04:45:34.453Z,70.87
2023-03-05T04:46:34.487Z,71.11
2023-03-05T04:47:34.417Z,70.45
2023-03-05T04:48:34.424Z,71.00
2023-03-05T04:49:34.411Z,70.79
2023-03-05T04:50:34.399Z,70.56
2023-03-05T04:51:34.385Z,70.07
2023-03-05T04:52:34.393Z,69.96
2023-03-05T04:53:34.363Z,70.51
2023-03-05T04:54:34.358Z,70.31
2023-03-05T04:55:34.364Z,71.14
2023-03-05T04:56:34.331Z,70.48
2023-03-05T04:57:34.330Z,70.79
2023-03-05T04:58:34.322Z,70.41
2023-03-05T04:59:34.305Z,70.83
2023-03-05T05:00:34.296Z,71.11
2023-03-05T05:01:34.333Z,71.52
2023-03-05T05:02:34.309Z,71.62
2023-03-05T05:03:34.264Z,71.73
2023-03-05T05:04:34.277Z,71.03
2023-03-05T05:05:34.252Z,71.03
2023-03-05T05:06:34.262Z,71.24
2023-03-05T05:07:34.215Z,71.66
2023-03-05T05:08:34.202Z,71.34
2023-03-05T05:09:34.197Z,71.31
2023-03-05T05:10:34.202Z,71.62
2023-03-05T05:11:34.179Z,71.83
2023-03-05T05:12:34.192Z,71.55
2023-03-05T05:13:34.161Z,71.14
2023-03-05T05:14:34.140Z,71.34
2023-03-05T05:15:34.156Z,72.28
2023-03-05T05:16:34.298Z,72.90
2023-03-05T05:17:34.121Z,72.66
2023-03-05T05:18:34.100Z,73.00
2023-03-05T05:19:34.212Z,72.97
2023-03-05T05:20:34.091Z,73.00
2023-03-05T05:21:34.081Z,72.80
2023-03-05T05:22:34.080Z,71.31
2023-03-05T05:23:34.070Z,72.17
2023-03-05T05:24:34.118Z,72.59
2023-03-05T05:25:34.048Z,71.73
2023-03-05T05:26:34.042Z,72.56
2023-03-05T05:27:34.028Z,71.31
2023-03-05T05:28:34.019Z,70.69
2023-03-05T05:29:34.029Z,71.94
2023-03-05T05:30:34.021Z,71.42
2023-03-05T05:31:34.023Z,71.52
2023-03-05T05:32:34.036Z,71.83
2023-03-05T05:33:33.964Z,70.48
2023-03-05T05:34:34.959Z,71.18
2023-03-05T05:35:34.007Z,70.79
2023-03-05T05:36:33.936Z,70.66
2023-03-05T05:37:33.942Z,71.28
2023-03-05T05:38:33.916Z,70.35
2023-03-05T05:39:33.907Z,71.28
2023-03-05T05:40:33.903Z,70.25
2023-03-05T05:41:33.907Z,70.14
2023-03-05T05:42:33.883Z,70.56
2023-03-05T05:43:33.870Z,70.14
2023-03-05T05:44:33.855Z,70.35
2023-03-05T05:45:34.036Z,70.17
2023-03-05T05:46:33.863Z,70.90
2023-03-05T05:47:33.833Z,71.59
2023-03-05T05:48:33.814Z,70.35
2023-03-05T05:49:33.805Z,70.59
2023-03-05T05:50:33.832Z,70.45
2023-03-05T05:51:33.791Z,70.14
2023-03-05T05:52:33.774Z,71.49
2023-03-05T05:53:33.765Z,70.97
2023-03-05T05:54:33.761Z,70.56
2023-03-05T05:55:33.766Z,70.56
2023-03-05T05:56:33.738Z,70.28
2023-03-05T05:57:33.720Z,70.48
2023-03-05T05:58:33.722Z,70.28
2023-03-05T05:59:33.738Z,70.17
2023-03-05T06:00:33.709Z,70.07
2023-03-05T06:01:33.738Z,70.48
2023-03-05T06:02:33.674Z,71.00
2023-03-05T06:03:33.674Z,70.56
2023-03-05T06:04:33.673Z,70.69
2023-03-05T06:05:33.642Z,70.90
2023-03-05T06:06:33.639Z,71.31
2023-03-05T06:07:33.624Z,70.59
2023-03-05T06:08:33.634Z,70.59
2023-03-05T06:09:33.626Z,70.69
2023-03-05T06:10:33.613Z,70.45
2023-03-05T06:11:33.599Z,70.35
2023-03-05T06:12:33.593Z,70.14
2023-03-05T06:13:33.573Z,70.14
2023-03-05T06:14:33.568Z,70.35
2023-03-05T06:15:33.579Z,70.35
2023-03-05T06:16:33.651Z,70.69
2023-03-05T06:17:33.544Z,71.39
2023-03-05T06:18:33.522Z,70.56
2023-03-05T06:19:33.512Z,71.11
2023-03-05T06:20:33.538Z,71.49
2023-03-05T06:21:33.502Z,71.11
2023-03-05T06:22:33.491Z,71.28
2023-03-05T06:23:33.467Z,71.31
2023-03-05T06:24:33.465Z,70.25
2023-03-05T06:25:33.461Z,70.38
2023-03-05T06:26:33.477Z,71.11
2023-03-05T06:27:33.446Z,70.79
2023-03-05T06:28:33.427Z,70.07
2023-03-05T06:29:33.419Z,70.48
2023-03-05T06:30:33.429Z,71.49
2023-03-05T06:31:34.618Z,71.70
2023-03-05T06:32:33.452Z,71.91
2023-03-05T06:33:33.392Z,70.97
2023-03-05T06:34:33.374Z,71.18
2023-03-05T06:35:33.379Z,71.91
2023-03-05T06:36:33.358Z,71.28
2023-03-05T06:37:33.359Z,69.93
2023-03-05T06:38:33.328Z,70.35
2023-03-05T06:39:33.314Z,70.35
2023-03-05T06:40:33.372Z,70.35
2023-03-05T06:41:33.334Z,70.35
2023-03-05T06:42:33.291Z,70.59
2023-03-05T06:43:33.285Z,70.45
2023-03-05T06:44:33.266Z,71.11
2023-03-05T06:45:33.267Z,71.42
2023-03-05T06:46:33.274Z,71.31
2023-03-05T06:47:33.256Z,71.42
2023-03-05T06:48:33.237Z,71.62
2023-03-05T06:49:33.235Z,71.52
2023-03-05T06:50:33.222Z,71.03
2023-03-05T06:51:33.243Z,71.42
2023-03-05T06:52:33.207Z,71.21
2023-03-05T06:53:33.183Z,71.52
2023-03-05T06:54:33.200Z,71.73
2023-03-05T06:55:33.180Z,70.56
2023-03-05T06:56:33.172Z,70.66
2023-03-05T06:57:33.160Z,70.21
2023-03-05T06:58:33.146Z,70.56
2023-03-05T06:59:33.134Z,70.45
2023-03-05T07:00:33.127Z,70.42
2023-03-05T07:01:33.225Z,70.25
2023-03-05T07:02:33.150Z,70.56
2023-03-05T07:03:33.085Z,70.35
2023-03-05T07:04:33.083Z,70.66
2023-03-05T07:05:34.204Z,70.31
2023-03-05T07:06:34.076Z,70.45
2023-03-05T07:07:33.046Z,70.14
2023-03-05T07:08:33.047Z,69.17
2023-03-05T07:09:33.029Z,70.10
2023-03-05T07:10:33.020Z,70.42
2023-03-05T07:11:33.031Z,70.39
2023-03-05T07:12:33.001Z,70.07
2023-03-05T07:13:33.012Z,69.97
2023-03-05T07:14:32.975Z,69.56
2023-03-05T07:15:32.993Z,69.48
2023-03-05T07:16:32.957Z,69.59
2023-03-05T07:17:32.954Z,69.45
2023-03-05T07:18:32.983Z,69.38
2023-03-05T07:19:32.991Z,69.90
2023-03-05T07:20:47.899Z,70.18
2023-03-05T07:22:04.812Z,69.07
2023-03-05T07:22:32.906Z,70.00
2023-03-05T07:23:32.899Z,70.07
2023-03-05T07:24:32.903Z,70.00
2023-03-05T07:25:32.893Z,69.76
2023-03-05T07:26:32.892Z,70.07
2023-03-05T07:27:32.860Z,69.27
2023-03-05T07:28:32.929Z,70.10
2023-03-05T07:29:32.851Z,69.48
2023-03-05T07:30:32.818Z,70.31
2023-03-05T07:31:32.851Z,70.94
2023-03-05T07:32:32.840Z,70.62
2023-03-05T07:33:32.806Z,70.39
2023-03-05T07:34:32.799Z,70.49
2023-03-05T07:35:32.803Z,70.52
2023-03-05T07:36:32.785Z,70.59
2023-03-05T07:37:32.766Z,70.21
2023-03-05T07:38:32.739Z,70.67
2023-03-05T07:39:32.737Z,70.31
2023-03-05T07:40:32.747Z,69.97
2023-03-05T07:41:32.725Z,70.49
2023-03-05T07:42:32.744Z,68.83
2023-03-05T07:43:32.702Z,70.18
2023-03-05T07:44:32.688Z,70.28
2023-03-05T07:45:32.706Z,69.97
2023-03-05T07:46:32.773Z,70.49
2023-03-05T07:47:32.667Z,70.07
2023-03-05T07:48:32.653Z,69.97
2023-03-05T07:49:32.627Z,70.25
2023-03-05T07:50:32.626Z,70.18
2023-03-05T07:51:32.675Z,70.15
2023-03-05T07:52:32.607Z,69.21
2023-03-05T07:53:32.600Z,69.32
2023-03-05T07:54:32.588Z,70.25
2023-03-05T07:55:32.587Z,69.45
2023-03-05T07:56:32.574Z,70.15
2023-03-05T07:57:32.571Z,70.18
2023-03-05T07:58:32.560Z,70.56
2023-03-05T07:59:32.568Z,70.04
2023-03-05T08:00:32.532Z,69.32
2023-03-05T08:01:32.540Z,70.25
2023-03-05T08:02:32.567Z,70.25
2023-03-05T08:03:32.499Z,70.49
2023-03-05T08:04:32.540Z,70.18
2023-03-05T08:05:32.474Z,70.46
2023-03-05T08:06:32.478Z,70.25
2023-03-05T08:07:32.462Z,70.25
2023-03-05T08:08:32.486Z,70.49
2023-03-05T08:09:32.439Z,70.87
2023-03-05T08:10:32.427Z,71.28
2023-03-05T08:11:32.422Z,71.18
2023-03-05T08:12:32.410Z,70.73
2023-03-05T08:13:32.421Z,71.77
2023-03-05T08:14:32.402Z,71.36
2023-03-05T08:15:32.400Z,69.49
2023-03-05T08:16:32.381Z,70.29
2023-03-05T08:17:32.385Z,69.98
2023-03-05T08:18:32.358Z,69.15
2023-03-05T08:19:32.379Z,69.35
2023-03-05T08:20:32.341Z,69.04
2023-03-05T08:21:32.361Z,69.15
2023-03-05T08:22:32.316Z,70.08
2023-03-05T08:23:32.317Z,70.29
2023-03-05T08:24:32.310Z,70.39
2023-03-05T08:25:32.309Z,70.50
2023-03-05T08:26:32.306Z,70.15
2023-03-05T08:27:32.269Z,70.29
2023-03-05T08:28:34.311Z,70.60
2023-03-05T08:29:32.254Z,71.22
2023-03-05T08:30:32.245Z,71.12
2023-03-05T08:31:32.296Z,71.33
2023-03-05T08:32:32.371Z,71.53
2023-03-05T08:33:33.841Z,71.43
2023-03-05T08:34:32.207Z,71.33
2023-03-05T08:35:32.225Z,71.33
2023-03-05T08:36:32.217Z,71.12
2023-03-05T08:37:32.174Z,71.22
2023-03-05T08:38:32.164Z,71.43
2023-03-05T08:39:32.194Z,71.33
2023-03-05T08:40:32.161Z,71.43
2023-03-05T08:41:32.159Z,71.67
2023-03-05T08:42:32.125Z,71.15
2023-03-05T08:43:32.119Z,70.94
2023-03-05T08:44:32.124Z,71.36
2023-03-05T08:45:32.097Z,71.53
2023-03-05T08:46:32.154Z,71.63
2023-03-05T08:47:32.081Z,71.53
2023-03-05T08:48:32.090Z,71.19
2023-03-05T08:49:32.061Z,70.84
2023-03-05T08:50:32.055Z,71.15
2023-03-05T08:51:32.034Z,70.22
2023-03-05T08:52:32.013Z,70.22
2023-03-05T08:53:32.026Z,70.32
2023-03-05T08:54:32.029Z,70.26
2023-03-05T08:55:31.981Z,70.15
2023-03-05T08:56:31.985Z,69.81
2023-03-05T08:57:31.973Z,69.92
2023-03-05T08:58:31.951Z,70.12
2023-03-05T08:59:31.961Z,68.95
2023-03-05T09:00:31.938Z,69.33
2023-03-05T09:01:31.997Z,69.40
2023-03-05T09:02:31.934Z,66.63
2023-03-05T09:03:31.908Z,66.70
2023-03-05T09:04:31.920Z,65.91
2023-03-05T09:05:31.892Z,66.14
2023-03-05T09:06:31.898Z,66.55
2023-03-05T09:07:31.902Z,66.55
2023-03-05T09:08:31.867Z,66.45
2023-03-05T09:09:31.849Z,66.89
2023-03-05T09:10:31.834Z,66.20
2023-03-05T09:11:31.820Z,67.13
2023-03-05T09:12:31.832Z,67.47
2023-03-05T09:13:31.804Z,67.37
2023-03-05T09:14:31.797Z,68.82
2023-03-05T09:15:32.810Z,68.54
2023-03-05T09:16:31.840Z,69.06
2023-03-05T09:17:31.765Z,69.71
2023-03-05T09:18:31.765Z,69.81
2023-03-05T09:19:31.749Z,69.40
2023-03-05T09:20:31.746Z,69.84
2023-03-05T09:21:31.736Z,69.12
2023-03-05T09:22:31.747Z,69.95
2023-03-05T09:23:31.707Z,69.84
2023-03-05T09:24:31.696Z,70.36
2023-03-05T09:25:31.708Z,69.84
2023-03-05T09:26:31.680Z,71.29
2023-03-05T09:27:31.670Z,71.50
2023-03-05T09:28:31.665Z,70.84
2023-03-05T09:29:31.664Z,71.43
2023-03-05T09:30:31.639Z,70.09
2023-03-05T09:31:31.651Z,69.16
2023-03-05T09:32:31.680Z,69.26
2023-03-05T09:33:31.615Z,69.47
2023-03-05T09:34:31.621Z,69.29
2023-03-05T09:35:31.623Z,69.29
2023-03-05T09:36:31.595Z,68.95
2023-03-05T09:37:31.564Z,69.37
2023-03-05T09:38:31.569Z,68.64
2023-03-05T09:39:31.569Z,69.06
2023-03-05T09:40:31.535Z,69.26
2023-03-05T09:41:31.537Z,68.85
2023-03-05T09:42:31.534Z,68.64
2023-03-05T09:43:31.535Z,69.06
2023-03-05T09:44:31.536Z,69.06
2023-03-05T09:45:31.536Z,68.74
2023-03-05T09:46:31.489Z,69.26
2023-03-05T09:47:31.474Z,69.47
2023-03-05T09:48:31.458Z,68.33
2023-03-05T09:49:31.471Z,67.91
2023-03-05T09:50:31.434Z,67.19
2023-03-05T09:51:31.433Z,67.78
2023-03-05T09:52:31.445Z,66.96
2023-03-05T09:53:31.573Z,67.37
2023-03-05T09:54:32.393Z,66.72
2023-03-05T09:55:32.389Z,66.20
2023-03-05T09:56:31.390Z,66.33
2023-03-05T09:57:31.363Z,65.72
2023-03-05T09:58:31.373Z,66.51
2023-03-05T09:59:31.361Z,66.64
2023-03-05T10:00:31.371Z,65.79
2023-03-05T10:01:31.334Z,66.51
2023-03-05T10:02:31.358Z,65.17
2023-03-05T10:03:31.378Z,64.76
2023-03-05T10:04:31.304Z,65.89
2023-03-05T10:05:31.309Z,65.48
2023-03-05T10:06:31.293Z,65.55
2023-03-05T10:07:31.300Z,65.45
2023-03-05T10:08:31.281Z,64.83
2023-03-05T10:09:31.260Z,64.83
2023-03-05T10:10:31.257Z,64.52
2023-03-05T10:11:31.254Z,64.21
2023-03-05T10:12:31.251Z,63.25
2023-03-05T10:13:31.247Z,63.87
2023-03-05T10:14:31.205Z,64.59
2023-03-05T10:15:32.114Z,64.90
2023-03-05T10:16:32.218Z,64.39
2023-03-05T10:17:31.198Z,64.49
2023-03-05T10:18:31.172Z,63.15
2023-03-05T10:19:31.160Z,63.25
2023-03-05T10:20:31.184Z,64.18
2023-03-05T10:21:31.163Z,62.12
2023-03-05T10:22:31.140Z,62.84
2023-03-05T10:23:31.132Z,61.80
2023-03-05T10:24:31.118Z,63.07
2023-03-05T10:25:31.088Z,64.39
2023-03-05T10:26:31.089Z,63.25
2023-03-05T10:27:31.142Z,62.53
2023-03-05T10:28:31.063Z,62.84
2023-03-05T10:29:31.066Z,62.01
2023-03-05T10:30:31.044Z,62.53
2023-03-05T10:31:31.136Z,62.60
2023-03-05T10:32:31.098Z,62.43
2023-03-05T10:33:33.560Z,63.12
2023-03-05T10:34:32.046Z,63.15
2023-03-05T10:35:31.021Z,63.67
2023-03-05T10:36:30.984Z,63.32
2023-03-05T10:37:31.016Z,63.01
2023-03-05T10:38:30.968Z,62.63
2023-03-05T10:39:30.955Z,62.32
2023-03-05T10:40:30.938Z,63.25
2023-03-05T10:41:30.944Z,64.21
2023-03-05T10:42:31.385Z,64.42
2023-03-05T10:43:30.932Z,65.06
2023-03-05T10:44:30.928Z,65.72
2023-03-05T10:45:30.945Z,66.33
2023-03-05T10:46:30.892Z,66.36
2023-03-05T10:47:30.907Z,66.44
2023-03-05T10:48:30.871Z,66.96
2023-03-05T10:49:30.887Z,66.96
2023-03-05T10:50:30.871Z,67.37
2023-03-05T10:51:30.859Z,67.16
2023-03-05T10:52:31.833Z,67.37
2023-03-05T10:53:30.824Z,65.82
2023-03-05T10:54:30.862Z,66.23
2023-03-05T10:55:30.803Z,66.03
2023-03-05T10:56:30.792Z,65.51
2023-03-05T10:57:31.790Z,65.20
2023-03-05T10:58:30.777Z,64.89
2023-03-05T10:59:30.751Z,66.00
2023-03-05T11:00:30.751Z,66.30
2023-03-05T11:01:30.796Z,64.93
2023-03-05T11:02:30.761Z,64.39
2023-03-05T11:03:30.730Z,64.59
2023-03-05T11:04:30.725Z,64.28
2023-03-05T11:05:30.688Z,64.28
2023-03-05T11:06:30.718Z,63.56
2023-03-05T11:07:30.690Z,65.14
2023-03-05T11:08:30.671Z,64.73
2023-03-05T11:09:30.634Z,65.11
2023-03-05T11:10:30.634Z,66.07
2023-03-05T11:11:30.629Z,64.93
2023-03-05T11:12:30.612Z,65.27
2023-03-05T11:13:30.641Z,66.72
2023-03-05T11:14:30.586Z,65.89
2023-03-05T11:15:30.590Z,66.61
2023-03-05T11:16:30.576Z,66.61
2023-03-05T11:17:30.694Z,66.33
2023-03-05T11:18:30.577Z,66.23
2023-03-05T11:19:30.549Z,66.23
2023-03-05T11:20:30.572Z,66.57
2023-03-05T11:21:30.526Z,66.78
2023-03-05T11:22:30.529Z,67.19
2023-03-05T11:23:30.513Z,67.40
2023-03-05T11:24:30.513Z,67.30
2023-03-05T11:25:30.502Z,67.50
2023-03-05T11:26:30.477Z,67.06
2023-03-05T11:27:30.478Z,66.54
2023-03-05T11:28:33.585Z,67.16
2023-03-05T11:29:31.449Z,66.23
2023-03-05T11:30:30.429Z,66.85
2023-03-05T11:31:30.442Z,66.93
2023-03-05T11:32:30.513Z,66.27
2023-03-05T11:33:30.403Z,66.72
2023-03-05T11:34:30.410Z,66.48
2023-03-05T11:35:30.411Z,66.45
2023-03-05T11:36:30.397Z,65.31
2023-03-05T11:37:30.372Z,64.39
2023-03-05T11:38:30.368Z,64.49
2023-03-05T11:39:30.348Z,64.04
2023-03-05T11:40:30.336Z,64.28
2023-03-05T11:41:30.324Z,64.80
2023-03-05T11:42:30.308Z,64.28
2023-03-05T11:43:30.348Z,63.67
2023-03-05T11:44:30.293Z,64.28
2023-03-05T11:45:30.273Z,64.59
2023-03-05T11:46:30.384Z,64.80
2023-03-05T11:47:30.271Z,65.00
2023-03-05T11:48:30.270Z,64.90
2023-03-05T11:49:30.262Z,64.39
2023-03-05T11:50:30.265Z,64.59
2023-03-05T11:51:30.253Z,64.83
2023-03-05T11:52:30.208Z,64.83
2023-03-05T11:53:30.217Z,64.31
2023-03-05T11:54:30.205Z,64.52
2023-03-05T11:55:30.186Z,64.55
2023-03-05T11:56:30.176Z,64.86
2023-03-05T11:57:30.163Z,64.96
2023-03-05T11:58:30.178Z,64.96
2023-03-05T11:59:30.153Z,64.45
2023-03-05T12:00:30.139Z,64.31
2023-03-05T12:01:30.125Z,64.55
2023-03-05T12:02:30.120Z,64.62
2023-03-05T12:03:30.157Z,64.00
2023-03-05T12:04:31.090Z,64.76
2023-03-05T12:05:30.106Z,64.62
2023-03-05T12:06:30.087Z,64.62
2023-03-05T12:07:30.073Z,65.24
2023-03-05T12:08:30.075Z,64.83
2023-03-05T12:09:30.037Z,64.93
2023-03-05T12:10:30.076Z,64.45
2023-03-05T12:11:30.075Z,65.27
2023-03-05T12:12:30.036Z,65.14
2023-03-05T12:13:29.995Z,65.24
2023-03-05T12:14:31.005Z,65.17
2023-03-05T12:15:29.993Z,65.89
2023-03-05T12:16:30.086Z,66.03
2023-03-05T12:17:29.970Z,66.54
2023-03-05T12:18:29.966Z,67.06
2023-03-05T12:19:29.945Z,67.06
2023-03-05T12:20:29.982Z,67.61
2023-03-05T12:21:29.972Z,69.26
2023-03-05T12:22:29.923Z,70.29
2023-03-05T12:23:29.908Z,69.57
2023-03-05T12:24:29.906Z,70.81
2023-03-05T12:25:29.878Z,71.64
2023-03-05T12:26:29.912Z,71.53
2023-03-05T12:27:29.869Z,71.22
2023-03-05T12:28:29.853Z,71.05
2023-03-05T12:29:29.850Z,71.12
2023-03-05T12:30:29.831Z,71.33
2023-03-05T12:31:30.900Z,71.88
2023-03-05T12:32:29.884Z,72.36
2023-03-05T12:33:29.822Z,72.57
2023-03-05T12:34:29.798Z,72.88
2023-03-05T12:35:29.877Z,72.67
2023-03-05T12:36:29.776Z,72.78
2023-03-05T12:37:29.814Z,72.88
2023-03-05T12:38:29.778Z,72.78
2023-03-05T12:39:29.772Z,72.78
2023-03-05T12:40:29.769Z,72.02
2023-03-05T12:41:31.046Z,72.53
2023-03-05T12:42:29.728Z,72.43
2023-03-05T12:43:29.750Z,71.50
2023-03-05T12:44:29.725Z,72.16
2023-03-05T12:45:29.698Z,72.88
2023-03-05T12:46:29.748Z,72.36
2023-03-05T12:47:29.671Z,72.43
2023-03-05T12:48:29.733Z,72.53
2023-03-05T12:49:29.650Z,72.85
2023-03-05T12:50:29.690Z,72.43
2023-03-05T12:51:29.631Z,72.53
2023-03-05T12:52:29.625Z,72.36